Time;durP1;ratioP1;P1;durP2;ratioP2;P2;SDS_P1;SDS_P2;PMS_P1;PMS_P2;Temp;Humidity;BMP_temperature;BMP_pressure;BME280_temperature;BME280_humidity;BME280_pressure;Samples;Min_cycle;Max_cycle;Signal;HPM_P1;HPM_P2
2022/01/02 00:01:57;;;;;;;19.60;3.45;;;;;;;6.24;100.00;99850.41;5034775;28;20068;-80
2022/01/02 00:04:47;;;;;;;11.02;1.85;;;;;;;6.41;100.00;99865.41;5025933;28;20084;-79
2022/01/02 00:07:41;;;;;;;13.93;2.97;;;;;;;6.31;100.00;99846.06;5010135;28;20074;-80
2022/01/02 00:10:26;;;;;;;9.02;2.13;;;;;;;6.41;100.00;99862.75;5025853;28;20150;-80
2022/01/02 00:13:15;;;;;;;9.93;3.58;;;;;;;6.40;100.00;99847.72;5023797;28;20060;-80
2022/01/02 00:16:07;;;;;;;13.55;2.35;;;;;;;6.37;100.00;99842.72;5022053;28;20530;-80
2022/01/02 00:19:03;;;;;;;13.68;2.55;;;;;;;6.20;100.00;99819.75;5013111;28;20039;-82
2022/01/02 00:21:48;;;;;;;9.88;2.42;;;;;;;6.32;100.00;99842.38;5037792;28;20063;-81
2022/01/02 00:24:32;;;;;;;15.38;2.75;;;;;;;6.23;100.00;99833.56;5019392;28;20056;-80
2022/01/02 00:27:17;;;;;;;16.40;2.17;;;;;;;6.22;100.00;99831.06;5025687;28;20113;-80
2022/01/02 00:30:03;;;;;;;12.85;2.88;;;;;;;6.09;100.00;99818.28;5006259;28;20173;-80
2022/01/02 00:32:48;;;;;;;8.77;2.95;;;;;;;5.97;100.00;99812.44;5023259;28;20112;-80
2022/01/02 00:35:32;;;;;;;5.82;1.65;;;;;;;5.92;100.00;99812.91;5015417;28;20132;-80
2022/01/02 00:38:20;;;;;;;9.85;1.23;;;;;;;5.85;100.00;99795.09;5026350;28;20037;-79
2022/01/02 00:41:04;;;;;;;20.42;1.95;;;;;;;6.02;100.00;99820.78;5028590;28;20044;-80
2022/01/02 00:43:59;;;;;;;10.00;2.83;;;;;;;5.93;100.00;99797.75;5021508;28;20040;-80
2022/01/02 00:46:55;;;;;;;11.95;2.22;;;;;;;6.04;100.00;99805.44;5028625;28;20116;-81
2022/01/02 00:49:41;;;;;;;8.82;2.17;;;;;;;6.09;100.00;99797.75;5000360;28;20483;-81
2022/01/02 00:52:25;;;;;;;11.45;2.00;;;;;;;6.19;100.00;99802.06;4999367;28;20048;-80
2022/01/02 00:55:12;;;;;;;15.15;2.42;;;;;;;6.24;100.00;99805.88;5003797;28;20083;-82
2022/01/02 00:58:12;;;;;;;6.35;1.88;;;;;;;6.24;100.00;99802.38;5000349;28;20070;-80
2022/01/02 01:00:59;;;;;;;11.73;2.13;;;;;;;6.28;100.00;99796.53;5002099;28;20035;-80
2022/01/02 01:03:45;;;;;;;12.23;2.38;;;;;;;6.34;100.00;99795.00;5025609;28;20531;-81
2022/01/02 01:06:33;;;;;;;8.93;1.83;;;;;;;6.42;100.00;99797.66;5036366;28;20253;-81
2022/01/02 01:09:18;;;;;;;10.65;2.25;;;;;;;6.38;100.00;99785.66;5015070;28;20087;-82
2022/01/02 01:12:03;;;;;;;11.18;3.10;;;;;;;6.22;100.00;99769.66;5029915;28;20059;-79
2022/01/02 01:14:47;;;;;;;18.77;3.17;;;;;;;6.25;100.00;99778.19;5021602;28;20049;-80
2022/01/02 01:17:32;;;;;;;20.05;3.83;;;;;;;6.23;100.00;99782.84;5015787;28;20095;-81
2022/01/02 01:20:16;;;;;;;18.27;2.92;;;;;;;6.13;100.00;99761.69;5003065;28;20902;-82
2022/01/02 01:23:01;;;;;;;7.65;1.70;;;;;;;6.21;100.00;99773.34;5016684;28;20045;-81
2022/01/02 01:25:46;;;;;;;9.93;2.70;;;;;;;5.95;100.00;99723.72;5016605;28;20045;-82
2022/01/02 01:28:30;;;;;;;10.63;2.30;;;;;;;6.15;100.00;99775.69;5008455;28;20039;-81
2022/01/02 01:31:14;;;;;;;6.95;1.88;;;;;;;6.12;100.00;99765.38;5023861;28;20138;-82
2022/01/02 01:33:58;;;;;;;14.02;2.63;;;;;;;6.15;100.00;99765.03;5014854;28;20048;-80
2022/01/02 01:36:42;;;;;;;7.30;1.95;;;;;;;6.24;100.00;99765.00;5005732;28;20056;-80
2022/01/02 01:39:26;;;;;;;14.05;2.50;;;;;;;6.27;100.00;99770.00;5017734;28;20059;-80
2022/01/02 01:42:12;;;;;;;17.17;2.58;;;;;;;6.24;100.00;99759.66;5028125;28;20049;-82
2022/01/02 01:48:02;;;;;;;14.95;1.77;;;;;;;6.37;100.00;99759.94;5016611;28;21628;-80
2022/01/02 01:50:47;;;;;;;6.03;1.80;;;;;;;6.51;100.00;99759.22;5018930;28;20055;-81
2022/01/02 01:53:33;;;;;;;11.15;3.20;;;;;;;6.56;100.00;99754.19;4998558;28;20071;-81
2022/01/02 01:56:17;;;;;;;8.63;2.47;;;;;;;6.60;100.00;99744.81;5004360;28;20111;-80
2022/01/02 01:59:02;;;;;;;9.07;2.47;;;;;;;6.51;100.00;99750.38;5020459;28;20636;-81
2022/01/02 02:01:47;;;;;;;8.35;2.85;;;;;;;6.29;100.00;99733.28;5012981;28;20043;-80
2022/01/02 02:04:32;;;;;;;10.70;1.38;;;;;;;6.40;100.00;99746.25;5017441;28;20517;-80
2022/01/02 02:07:16;;;;;;;15.52;2.30;;;;;;;6.40;100.00;99738.22;5003867;28;20621;-81
2022/01/02 02:10:12;;;;;;;11.85;2.65;;;;;;;6.48;100.00;99743.53;5020610;28;20072;-79
2022/01/02 02:12:57;;;;;;;14.70;2.88;;;;;;;6.48;100.00;99743.53;5011570;28;20853;-80
2022/01/02 02:15:41;;;;;;;14.57;2.28;;;;;;;6.48;100.00;99743.53;4997395;28;20044;-81
2022/01/02 02:18:25;;;;;;;13.75;1.95;;;;;;;6.53;100.00;99745.69;5016713;28;20127;-81
2022/01/02 02:21:09;;;;;;;11.50;1.98;;;;;;;6.47;100.00;99725.84;5025960;28;20122;-80
2022/01/02 02:23:53;;;;;;;12.43;2.63;;;;;;;6.57;100.00;99726.47;5023469;28;20040;-82
2022/01/02 02:26:38;;;;;;;7.75;1.80;;;;;;;6.55;100.00;99716.97;5024454;28;20505;-81
2022/01/02 02:29:22;;;;;;;7.68;1.73;;;;;;;6.65;100.00;99728.28;5047864;28;20047;-80
2022/01/02 02:32:06;;;;;;;4.68;1.38;;;;;;;6.71;100.00;99718.72;5027942;28;20103;-80
2022/01/02 02:34:50;;;;;;;9.25;1.48;;;;;;;6.70;100.00;99723.25;5016309;28;20437;-81
2022/01/02 02:37:41;;;;;;;4.85;1.50;;;;;;;6.75;100.00;99715.53;5024233;28;20036;-80
2022/01/02 02:40:26;;;;;;;6.32;1.73;;;;;;;6.87;100.00;99713.25;5025492;28;20087;-79
2022/01/02 02:49:09;;;;;;;5.78;2.55;;;;;;;7.16;100.00;99701.84;5021111;28;20066;-80
2022/01/02 02:51:58;;;;;;;6.32;1.58;;;;;;;7.27;100.00;99713.97;5021576;28;20099;-81
2022/01/02 02:54:43;;;;;;;7.63;1.55;;;;;;;7.20;100.00;99703.19;5013300;28;20055;-80
2022/01/02 02:57:31;;;;;;;4.75;1.98;;;;;;;7.15;100.00;99710.06;4995729;28;20052;-80
2022/01/02 03:00:15;;;;;;;2.80;0.98;;;;;;;7.03;100.00;99686.41;4999611;28;20510;-79
2022/01/02 03:02:59;;;;;;;10.57;3.05;;;;;;;7.14;100.00;99695.84;5015425;28;20079;-79
2022/01/02 03:05:43;;;;;;;10.32;1.92;;;;;;;7.20;100.00;99710.38;5013577;28;20053;-81
2022/01/02 03:08:27;;;;;;;11.48;1.60;;;;;;;7.16;100.00;99704.53;5016668;28;20052;-81
2022/01/02 03:11:18;;;;;;;9.15;1.83;;;;;;;7.14;100.00;99684.34;5017497;28;20411;-81
2022/01/02 03:14:03;;;;;;;16.77;2.45;;;;;;;7.17;100.00;99698.19;5036784;28;20043;-82
2022/01/02 03:16:47;;;;;;;5.43;0.88;;;;;;;7.10;100.00;99688.41;5006093;28;20056;-81
2022/01/02 03:19:32;;;;;;;12.10;2.25;;;;;;;7.05;100.00;99695.09;5018244;28;20040;-81
2022/01/02 03:22:16;;;;;;;16.08;2.17;;;;;;;7.04;100.00;99697.97;5016827;28;20418;-81
2022/01/02 03:25:00;;;;;;;6.43;1.58;;;;;;;7.06;100.00;99698.59;5014292;28;20683;-81
2022/01/02 03:27:45;;;;;;;2.70;1.48;;;;;;;7.01;100.00;99685.78;5005476;28;20171;-80
2022/01/02 03:30:29;;;;;;;6.53;1.58;;;;;;;7.09;100.00;99690.22;5013006;28;20228;-81
2022/01/02 03:33:18;;;;;;;6.68;1.33;;;;;;;7.07;100.00;99694.94;5019294;28;20048;-81
2022/01/02 03:36:03;;;;;;;9.30;1.75;;;;;;;7.00;100.00;99685.97;4999098;28;20091;-80
2022/01/02 03:38:47;;;;;;;10.82;2.78;;;;;;;7.04;100.00;99687.28;5017003;28;20040;-80
2022/01/02 03:41:31;;;;;;;5.68;2.03;;;;;;;7.00;100.00;99673.41;5019444;28;20049;-81
2022/01/02 03:44:15;;;;;;;7.43;1.33;;;;;;;7.02;100.00;99682.09;5020050;28;20048;-80
2022/01/02 03:46:59;;;;;;;9.18;2.67;;;;;;;7.00;100.00;99696.66;5024661;28;20059;-80
2022/01/02 03:49:43;;;;;;;7.65;1.80;;;;;;;7.02;100.00;99692.78;5021270;28;20080;-81
2022/01/02 03:52:28;;;;;;;6.00;1.40;;;;;;;7.05;100.00;99699.63;5044498;28;20056;-81
2022/01/02 03:55:12;;;;;;;17.95;2.17;;;;;;;7.10;100.00;99696.41;5012813;28;20652;-81
2022/01/02 03:57:56;;;;;;;3.75;1.13;;;;;;;7.05;100.00;99680.91;4999353;28;20519;-83
2022/01/02 04:00:40;;;;;;;8.00;1.50;;;;;;;7.08;100.00;99682.38;5016930;28;20113;-80
2022/01/02 04:03:24;;;;;;;6.00;1.42;;;;;;;7.21;100.00;99679.94;5002193;28;20080;-80
2022/01/02 04:06:08;;;;;;;6.57;2.03;;;;;;;7.26;100.00;99664.19;5011267;28;20122;-80
2022/01/02 04:08:52;;;;;;;12.38;1.73;;;;;;;7.18;100.00;99662.41;5018621;28;20037;-80
2022/01/02 04:11:36;;;;;;;13.38;1.80;;;;;;;7.21;100.00;99671.91;5004033;28;20048;-80
2022/01/02 04:14:20;;;;;;;14.60;2.55;;;;;;;7.15;100.00;99676.16;5014414;28;20044;-81
2022/01/02 04:17:04;;;;;;;8.20;1.95;;;;;;;7.29;100.00;99669.16;5015886;28;20079;-80
2022/01/02 04:19:48;;;;;;;15.07;3.00;;;;;;;7.48;100.00;99671.31;5020808;28;20046;-81
2022/01/02 04:22:32;;;;;;;11.00;1.60;;;;;;;7.48;100.00;99662.47;5021581;28;20391;-81
2022/01/02 04:25:16;;;;;;;10.98;1.48;;;;;;;7.28;100.00;99638.09;5023628;28;20526;-80
2022/01/02 04:28:00;;;;;;;5.25;1.35;;;;;;;7.24;100.00;99651.00;5016713;28;20048;-82
2022/01/02 04:30:44;;;;;;;5.78;1.73;;;;;;;7.16;100.00;99655.59;5013798;28;20585;-80
2022/01/02 04:33:28;;;;;;;3.33;1.42;;;;;;;7.11;100.00;99658.78;5011670;28;20045;-82
2022/01/02 04:36:12;;;;;;;7.88;1.38;;;;;;;6.98;100.00;99654.06;5009768;28;20095;-80
2022/01/02 04:38:56;;;;;;;5.97;1.95;;;;;;;6.97;100.00;99662.25;5014608;28;20132;-83
2022/01/02 04:41:40;;;;;;;6.28;1.15;;;;;;;6.90;100.00;99661.31;5018169;28;20073;-81
2022/01/02 04:44:24;;;;;;;13.95;1.73;;;;;;;6.79;100.00;99650.03;5017331;28;20087;-82
2022/01/02 04:47:11;;;;;;;4.15;1.17;;;;;;;6.65;100.00;99649.97;5003942;28;20056;-80
2022/01/02 04:49:56;;;;;;;11.90;1.92;;;;;;;6.52;100.00;99645.22;5016721;28;20056;-81
2022/01/02 04:52:40;;;;;;;9.93;1.40;;;;;;;6.36;100.00;99643.47;5004332;28;20100;-80
2022/01/02 04:55:24;;;;;;;6.55;1.15;;;;;;;6.26;100.00;99633.03;5026552;28;20683;-81
2022/01/02 04:58:09;;;;;;;13.93;1.48;;;;;;;6.27;100.00;99641.84;5038495;28;20119;-80
2022/01/02 05:00:53;;;;;;;1.33;0.90;;;;;;;6.49;100.00;99640.25;5014653;28;20498;-82
2022/01/02 05:03:38;;;;;;;5.63;1.60;;;;;;;6.70;100.00;99636.94;5022139;28;20175;-79
2022/01/02 05:06:22;;;;;;;4.55;1.17;;;;;;;6.89;100.00;99640.94;5024906;28;20048;-82
2022/01/02 05:09:06;;;;;;;4.15;1.50;;;;;;;7.02;100.00;99644.69;5004656;28;20863;-81
2022/01/02 05:11:52;;;;;;;7.70;1.33;;;;;;;7.08;100.00;99637.78;5019916;28;20071;-82
2022/01/02 05:14:36;;;;;;;7.30;1.40;;;;;;;7.13;100.00;99630.03;5025076;28;20484;-84
2022/01/02 05:17:20;;;;;;;4.90;1.52;;;;;;;7.16;100.00;99631.53;5001117;28;20044;-82
2022/01/02 05:20:05;;;;;;;4.40;1.90;;;;;;;7.28;100.00;99627.41;5016572;28;20040;-83
2022/01/02 05:22:49;;;;;;;1.65;0.80;;;;;;;7.30;100.00;99609.31;5021860;28;20044;-82
2022/01/02 05:25:33;;;;;;;4.25;1.42;;;;;;;7.20;99.90;99593.56;5014177;28;20048;-81
2022/01/02 05:28:17;;;;;;;4.57;0.90;;;;;;;7.27;99.59;99618.53;5016365;28;20040;-81
2022/01/02 05:31:02;;;;;;;9.13;1.38;;;;;;;7.27;100.00;99620.38;5017296;28;20105;-82
2022/01/02 05:33:46;;;;;;;6.75;1.48;;;;;;;7.24;100.00;99621.56;5014075;28;20083;-81
2022/01/02 05:36:30;;;;;;;2.83;1.73;;;;;;;7.25;100.00;99609.03;5020037;28;20056;-81
2022/01/02 05:39:18;;;;;;;8.93;2.03;;;;;;;7.40;100.00;99625.94;5003512;28;20149;-81
2022/01/02 05:42:03;;;;;;;6.22;1.63;;;;;;;7.36;100.00;99616.63;5023808;28;20059;-82
2022/01/02 05:44:47;;;;;;;12.10;1.55;;;;;;;7.46;100.00;99625.22;5021573;28;20622;-81
2022/01/02 05:47:31;;;;;;;7.10;1.33;;;;;;;7.49;100.00;99606.13;5046079;28;20099;-81
2022/01/02 05:50:15;;;;;;;4.47;1.27;;;;;;;7.48;100.00;99601.78;5022916;28;20041;-81
2022/01/02 05:53:00;;;;;;;35.95;2.72;;;;;;;7.56;99.80;99587.47;5020012;28;20128;-81
2022/01/02 05:55:44;;;;;;;8.27;1.20;;;;;;;7.59;99.76;99589.78;5021472;28;20036;-80
2022/01/02 05:58:28;;;;;;;1.92;1.10;;;;;;;7.63;99.43;99592.94;5007106;28;20090;-80
2022/01/02 06:01:12;;;;;;;3.72;1.20;;;;;;;7.55;99.66;99598.38;5025542;28;20456;-80
2022/01/02 06:03:55;;;;;;;12.77;1.52;;;;;;;7.43;99.93;99606.84;5016118;28;20209;-82
2022/01/02 06:06:40;;;;;;;5.53;1.17;;;;;;;7.17;100.00;99574.38;5015140;28;20841;-82
2022/01/02 06:09:24;;;;;;;4.38;1.17;;;;;;;7.26;100.00;99586.66;4997122;28;20037;-81
2022/01/02 06:12:08;;;;;;;9.82;1.63;;;;;;;7.32;100.00;99591.25;5017600;28;20040;-80
2022/01/02 06:14:52;;;;;;;4.55;1.30;;;;;;;7.42;100.00;99583.78;4996558;28;20127;-81
2022/01/02 06:17:36;;;;;;;4.32;1.25;;;;;;;7.17;100.00;99543.13;5018484;28;20567;-80
2022/01/02 06:20:20;;;;;;;8.75;1.60;;;;;;;7.46;100.00;99590.44;5013180;28;20071;-81
2022/01/02 06:23:04;;;;;;;4.10;1.25;;;;;;;7.46;100.00;99578.91;5018488;28;20083;-81
2022/01/02 06:25:48;;;;;;;7.85;1.35;;;;;;;7.44;100.00;99586.31;5024653;28;20513;-81
2022/01/02 06:28:32;;;;;;;7.10;1.13;;;;;;;7.29;100.00;99580.94;5002667;28;20115;-81
2022/01/02 06:31:16;;;;;;;10.82;1.50;;;;;;;7.16;100.00;99576.22;5022870;28;20537;-81
2022/01/02 06:34:00;;;;;;;8.95;1.52;;;;;;;7.02;100.00;99593.91;5014811;28;20044;-81
2022/01/02 06:36:45;;;;;;;7.88;2.20;;;;;;;6.93;100.00;99592.31;5012248;28;20132;-82
2022/01/02 06:39:29;;;;;;;3.78;1.17;;;;;;;6.85;100.00;99594.22;5024389;28;20047;-81
2022/01/02 06:42:13;;;;;;;6.85;2.58;;;;;;;6.74;100.00;99600.81;5017568;28;20057;-82
2022/01/02 06:44:57;;;;;;;3.33;1.15;;;;;;;6.72;100.00;99597.50;5014083;28;20048;-80
2022/01/02 06:47:42;;;;;;;8.68;1.40;;;;;;;6.68;100.00;99586.34;5006344;28;20254;-81
2022/01/02 06:50:26;;;;;;;3.30;1.20;;;;;;;6.70;100.00;99591.53;5015274;28;20044;-80
2022/01/02 06:53:11;;;;;;;4.93;0.80;;;;;;;6.74;100.00;99588.28;5013768;28;20047;-81
2022/01/02 06:55:54;;;;;;;1.73;1.55;;;;;;;6.76;100.00;99583.59;5036112;28;20102;-81
2022/01/02 06:58:40;;;;;;;8.90;1.08;;;;;;;6.79;100.00;99593.09;5007198;28;20052;-81
2022/01/02 07:01:23;;;;;;;6.38;1.50;;;;;;;6.40;100.00;99527.31;5020982;28;20915;-80
2022/01/02 07:04:07;;;;;;;9.30;1.63;;;;;;;6.81;100.00;99578.53;5032466;28;20099;-80
2022/01/02 07:06:51;;;;;;;7.55;1.25;;;;;;;6.85;100.00;99576.34;5023334;28;20059;-81
2022/01/02 07:09:36;;;;;;;16.02;1.98;;;;;;;6.77;100.00;99557.72;5011062;28;20092;-81
2022/01/02 07:12:20;;;;;;;5.47;1.35;;;;;;;6.81;100.00;99569.72;5001136;28;20087;-82
2022/01/02 07:15:07;;;;;;;5.30;0.93;;;;;;;6.84;100.00;99566.66;5017716;28;20041;-81
2022/01/02 07:17:51;;;;;;;9.85;1.75;;;;;;;6.83;100.00;99570.38;5009088;28;20398;-81
2022/01/02 07:20:35;;;;;;;3.90;1.05;;;;;;;6.77;100.00;99565.72;5007563;28;20072;-81
2022/01/02 07:23:19;;;;;;;5.20;1.25;;;;;;;6.75;100.00;99562.44;5019985;28;20099;-81
2022/01/02 07:26:03;;;;;;;6.82;1.38;;;;;;;6.74;100.00;99566.09;5031471;28;20040;-80
2022/01/02 07:28:47;;;;;;;12.80;1.30;;;;;;;6.75;100.00;99559.75;5024636;28;20122;-82
2022/01/02 07:31:31;;;;;;;5.18;2.00;;;;;;;6.81;100.00;99551.84;5008225;28;20294;-80
2022/01/02 07:34:15;;;;;;;2.15;1.40;;;;;;;6.92;100.00;99565.78;5013585;28;20537;-80
2022/01/02 07:36:59;;;;;;;7.55;1.35;;;;;;;6.90;100.00;99565.09;5011507;28;20052;-80
2022/01/02 07:39:43;;;;;;;8.80;1.35;;;;;;;6.94;100.00;99563.75;5046214;28;20105;-81
2022/01/02 07:42:27;;;;;;;16.73;1.88;;;;;;;6.84;100.00;99555.97;5013548;28;20040;-81
2022/01/02 07:45:12;;;;;;;9.57;1.60;;;;;;;7.00;100.00;99571.03;5021298;28;20048;-80
2022/01/02 07:47:56;;;;;;;7.07;1.40;;;;;;;7.11;100.00;99575.09;5029644;28;20116;-80
2022/01/02 07:50:40;;;;;;;10.55;1.67;;;;;;;7.13;100.00;99565.06;5049051;28;20048;-80
2022/01/02 07:53:25;;;;;;;9.02;1.35;;;;;;;7.16;100.00;99573.53;5020761;28;20095;-80
2022/01/02 07:56:10;;;;;;;3.83;1.10;;;;;;;6.97;100.00;99566.88;5021140;28;20091;-81
2022/01/02 07:58:55;;;;;;;4.45;1.08;;;;;;;6.88;100.00;99573.31;5019110;28;20223;-81
2022/01/02 08:01:40;;;;;;;15.20;1.55;;;;;;;6.86;100.00;99578.00;5022320;28;20052;-81
2022/01/02 08:04:24;;;;;;;9.20;1.60;;;;;;;6.80;100.00;99576.91;5023284;28;20155;-80
2022/01/02 08:07:08;;;;;;;8.32;1.17;;;;;;;6.73;100.00;99583.13;5020416;28;20124;-82
2022/01/02 08:09:52;;;;;;;6.72;1.35;;;;;;;6.68;100.00;99582.84;5024496;28;20120;-81
2022/01/02 08:12:36;;;;;;;10.20;2.03;;;;;;;6.66;100.00;99569.66;5026051;28;20044;-80
2022/01/02 08:15:20;;;;;;;6.45;1.13;;;;;;;6.68;100.00;99589.00;5027418;28;20111;-80
2022/01/02 08:18:04;;;;;;;11.10;1.45;;;;;;;6.56;100.00;99579.75;5030453;28;20087;-80
2022/01/02 08:20:48;;;;;;;3.15;1.45;;;;;;;6.44;100.00;99581.19;5032643;28;20091;-81
2022/01/02 08:23:34;;;;;;;12.25;1.50;;;;;;;6.46;100.00;99574.66;5029178;28;20048;-80
2022/01/02 08:26:18;;;;;;;10.90;2.85;;;;;;;6.53;100.00;99577.44;5024706;28;20072;-80
2022/01/02 08:29:05;;;;;;;14.70;2.10;;;;;;;6.43;100.00;99588.38;5019486;28;20514;-80
2022/01/02 08:31:49;;;;;;;16.15;1.80;;;;;;;6.50;100.00;99588.47;5026359;28;20044;-81
2022/01/02 08:34:33;;;;;;;8.15;1.27;;;;;;;6.51;100.00;99598.16;5008320;28;20403;-80
2022/01/02 08:37:17;;;;;;;3.35;1.50;;;;;;;6.49;100.00;99595.66;5039819;28;20419;-81
2022/01/02 08:40:02;;;;;;;8.70;1.90;;;;;;;6.37;100.00;99575.72;4999679;28;20091;-80
2022/01/02 08:42:46;;;;;;;2.30;1.17;;;;;;;6.45;100.00;99589.00;5045147;28;20033;-81
2022/01/02 08:45:30;;;;;;;4.03;1.10;;;;;;;6.55;100.00;99602.97;5027235;28;20052;-80
2022/01/02 08:48:14;;;;;;;5.90;1.25;;;;;;;6.68;100.00;99593.53;5027775;28;20103;-80
2022/01/02 08:50:58;;;;;;;6.82;1.35;;;;;;;6.68;100.00;99575.66;5044567;28;20106;-82
2022/01/02 08:53:42;;;;;;;14.98;1.55;;;;;;;6.82;100.00;99584.72;5030869;28;20099;-80
2022/01/02 08:56:26;;;;;;;5.05;1.20;;;;;;;6.84;100.00;99593.38;5017386;28;20103;-80
2022/01/02 08:59:10;;;;;;;2.35;0.75;;;;;;;6.96;99.40;99591.09;5012514;28;20503;-80
2022/01/02 09:01:55;;;;;;;2.90;0.80;;;;;;;6.95;98.90;99584.94;5017434;28;20494;-80
2022/01/02 09:04:39;;;;;;;4.00;1.33;;;;;;;7.08;98.00;99592.34;5031805;28;20040;-80
2022/01/02 09:07:23;;;;;;;6.65;1.50;;;;;;;7.13;97.98;99591.78;5016338;28;20492;-80
2022/01/02 09:10:07;;;;;;;5.00;0.80;;;;;;;7.09;97.91;99582.47;5031046;28;20048;-80
2022/01/02 09:12:51;;;;;;;5.32;1.17;;;;;;;7.22;97.33;99593.34;5024700;28;20051;-81
2022/01/02 09:15:35;;;;;;;5.50;1.02;;;;;;;7.17;97.07;99590.41;5015775;28;20099;-80
2022/01/02 09:18:20;;;;;;;1.23;0.65;;;;;;;7.23;97.08;99593.19;5028472;28;20099;-80
2022/01/02 09:21:04;;;;;;;9.15;1.77;;;;;;;7.25;97.12;99593.00;5011608;28;20502;-79
2022/01/02 09:23:48;;;;;;;5.82;1.20;;;;;;;7.27;97.17;99585.63;5032269;28;20516;-80
2022/01/02 09:26:32;;;;;;;4.25;1.40;;;;;;;7.36;97.18;99576.53;5031723;28;20060;-80
2022/01/02 09:29:16;;;;;;;4.68;1.65;;;;;;;7.49;97.48;99594.59;5058744;28;20039;-80
2022/01/02 09:32:01;;;;;;;9.15;3.28;;;;;;;7.58;97.33;99592.66;5029803;28;20498;-80
2022/01/02 09:34:45;;;;;;;13.85;3.72;;;;;;;7.58;97.41;99592.66;5031139;28;20549;-80
2022/01/02 09:37:29;;;;;;;8.32;2.92;;;;;;;7.72;96.93;99591.81;5031500;28;20052;-80
2022/01/02 09:40:13;;;;;;;9.82;2.00;;;;;;;7.71;96.68;99584.81;5030021;28;20040;-80
2022/01/02 09:42:58;;;;;;;2.70;1.13;;;;;;;7.67;96.85;99595.06;5023287;28;20203;-79
2022/01/02 09:45:47;;;;;;;5.20;1.73;;;;;;;7.73;97.17;99582.78;5029517;28;20041;-79
2022/01/02 09:48:31;;;;;;;8.13;1.90;;;;;;;7.79;96.40;99592.72;5031365;28;20099;-79
2022/01/02 09:51:24;;;;;;;9.82;2.55;;;;;;;7.81;96.58;99597.91;5012001;28;20377;-80
2022/01/02 09:54:09;;;;;;;3.17;1.80;;;;;;;7.83;96.89;99588.69;5029968;28;20128;-79
2022/01/02 09:56:35;;;;;;;10.48;2.30;;;;;;;7.92;96.51;99594.75;4998081;28;20044;-81
2022/01/02 09:59:02;;;;;;;6.65;2.60;;;;;;;7.94;96.69;99595.41;5030718;28;20030;-80
2022/01/02 10:01:30;;;;;;;5.18;1.60;;;;;;;8.02;96.64;99586.41;5014639;28;20555;-79
2022/01/02 10:03:57;;;;;;;5.38;1.55;;;;;;;8.14;95.48;99584.91;5030088;28;20056;-80
2022/01/02 10:06:39;;;;;;;5.07;2.05;;;;;;;8.42;95.05;99597.63;5025267;28;20064;-80
2022/01/02 10:09:05;;;;;;;7.57;1.85;;;;;;;8.43;94.91;99584.00;5029168;28;20037;-80
2022/01/02 10:11:32;;;;;;;5.68;1.55;;;;;;;8.32;94.94;99574.59;4997000;28;20079;-81
2022/01/02 10:14:02;;;;;;;8.43;1.73;;;;;;;8.28;95.69;99584.06;5014226;28;20072;-80
2022/01/02 10:16:33;;;;;;;10.88;1.75;;;;;;;8.01;96.84;99577.53;5014259;28;20095;-80
2022/01/02 10:19:18;;;;;;;4.93;1.27;;;;;;;8.20;96.16;99578.78;5030144;28;20113;-80
2022/01/02 10:21:54;;;;;;;4.03;1.63;;;;;;;8.68;93.11;99571.06;5028421;28;20037;-81
2022/01/02 10:24:25;;;;;;;5.72;1.50;;;;;;;8.46;94.41;99586.31;5014259;28;20045;-80
2022/01/02 10:27:15;;;;;;;3.30;1.13;;;;;;;8.20;96.36;99581.47;4997089;28;20025;-80
2022/01/02 10:29:50;;;;;;;6.38;1.45;;;;;;;8.15;96.35;99591.94;5026107;28;20380;-79
2022/01/02 10:32:38;;;;;;;1.85;0.90;;;;;;;8.35;96.27;99584.94;5003521;28;21064;-78
2022/01/02 10:35:11;;;;;;;6.93;1.00;;;;;;;8.49;95.58;99544.91;5026173;28;20060;-80
2022/01/02 10:37:40;;;;;;;3.00;1.20;;;;;;;9.22;93.51;99589.22;5005628;28;20030;-84
2022/01/02 10:40:23;;;;;;;17.67;2.40;;;;;;;8.83;96.15;99581.69;4991528;28;20081;-82
2022/01/02 10:42:48;;;;;;;3.50;1.42;;;;;;;8.36;100.00;99583.06;5045670;28;20037;-81
2022/01/02 10:45:33;;;;;;;4.07;1.13;;;;;;;8.26;100.00;99594.13;5026811;28;20487;-80
2022/01/02 10:47:59;;;;;;;4.50;1.17;;;;;;;8.73;100.00;99586.56;5039426;28;20041;-79
2022/01/02 10:50:25;;;;;;;4.80;1.40;;;;;;;8.70;100.00;99576.22;5028067;28;20044;-79
2022/01/02 10:52:53;;;;;;;5.97;1.48;;;;;;;9.86;98.95;99580.09;5023072;28;20041;-79
2022/01/02 10:55:28;;;;;;;2.67;1.25;;;;;;;9.48;98.61;99579.72;4995786;28;20041;-79
2022/01/02 10:57:56;;;;;;;4.18;2.22;;;;;;;8.88;100.00;99581.94;4991790;28;20514;-83
2022/01/02 11:00:27;;;;;;;5.20;1.48;;;;;;;9.07;100.00;99596.53;5013515;28;20037;-85
2022/01/02 11:02:53;;;;;;;4.45;1.33;;;;;;;9.25;100.00;99588.84;5046195;28;20044;-84
2022/01/02 11:05:21;;;;;;;4.97;1.52;;;;;;;9.32;100.00;99602.31;5030056;28;20035;-84
2022/01/02 11:07:48;;;;;;;12.27;1.58;;;;;;;9.03;100.00;99595.28;4994661;28;20033;-84
2022/01/02 11:10:23;;;;;;;7.25;1.77;;;;;;;8.79;100.00;99551.78;5013814;28;20033;-84
2022/01/02 11:12:51;;;;;;;10.07;2.30;;;;;;;9.11;100.00;99575.53;5013328;28;20033;-84
2022/01/02 11:15:21;;;;;;;4.88;1.92;;;;;;;9.52;100.00;99578.25;5030379;28;20026;-84
2022/01/02 11:17:48;;;;;;;9.10;2.17;;;;;;;11.50;97.76;99581.53;5012421;28;20491;-84
2022/01/02 11:20:17;;;;;;;11.02;2.22;;;;;;;12.84;90.13;99579.88;5030275;28;20026;-84
2022/01/02 11:22:57;;;;;;;16.13;2.33;;;;;;;13.00;88.05;99556.91;5013226;28;20453;-85
2022/01/02 11:26:00;;;;;;;9.63;1.73;;;;;;;12.69;88.71;99550.50;5029591;28;20395;-84
2022/01/02 11:28:26;;;;;;;10.30;2.08;;;;;;;11.61;93.31;99555.81;5009314;28;20128;-78
2022/01/02 11:30:53;;;;;;;20.83;2.63;;;;;;;12.00;93.94;99564.81;5005407;28;20460;-78
2022/01/02 11:33:20;;;;;;;6.50;1.58;;;;;;;11.75;94.43;99554.75;5010123;28;20044;-78
2022/01/02 11:35:49;;;;;;;11.95;2.33;;;;;;;11.67;95.47;99549.59;5042670;28;20037;-79
2022/01/02 11:38:21;;;;;;;9.40;2.05;;;;;;;11.30;97.20;99533.16;5027244;28;20033;-79
2022/01/02 11:40:56;;;;;;;10.60;2.50;;;;;;;12.46;92.73;99548.41;5027199;28;20159;-79
2022/01/02 11:43:57;;;;;;;12.57;2.25;;;;;;;13.08;89.04;99550.41;5028473;28;20025;-79
2022/01/02 11:46:29;;;;;;;20.50;3.07;;;;;;;13.33;85.93;99553.09;5028757;28;20128;-78
2022/01/02 11:49:15;;;;;;;20.33;3.25;;;;;;;13.70;84.49;99545.81;5012266;28;20061;-78
2022/01/02 11:52:02;;;;;;;15.52;3.53;;;;;;;13.67;84.16;99545.47;4998845;28;20391;-81
2022/01/02 11:54:39;;;;;;;17.55;4.15;;;;;;;13.22;84.83;99534.91;5015165;28;20057;-79
2022/01/02 11:57:11;;;;;;;8.68;2.65;;;;;;;13.09;85.20;99525.06;5031885;28;20033;-78
2022/01/02 11:59:39;;;;;;;21.38;4.00;;;;;;;13.49;81.58;99541.69;5015777;28;20041;-79
2022/01/02 12:02:14;;;;;;;19.17;2.92;;;;;;;13.37;77.96;99533.53;5032861;28;20061;-78
2022/01/02 12:04:59;;;;;;;9.98;3.30;;;;;;;12.84;82.74;99549.38;5016205;28;20044;-80
2022/01/02 12:07:37;;;;;;;17.40;3.88;;;;;;;12.51;82.26;99542.34;5012864;28;20131;-80
2022/01/02 12:10:21;;;;;;;16.23;3.17;;;;;;;12.06;81.81;99545.09;5015332;28;20029;-78
2022/01/02 12:12:59;;;;;;;22.15;3.90;;;;;;;11.50;84.96;99551.09;5013427;28;20065;-79
2022/01/02 12:15:44;;;;;;;20.42;4.05;;;;;;;10.85;87.86;99551.81;5014801;28;20047;-77
2022/01/02 12:18:11;;;;;;;18.33;3.78;;;;;;;10.52;88.15;99552.63;5049886;28;20064;-78
2022/01/02 12:21:00;;;;;;;21.92;4.28;;;;;;;10.29;91.80;99558.38;5021539;28;20029;-78
2022/01/02 12:23:35;;;;;;;18.23;4.40;;;;;;;10.22;95.46;99551.31;5063783;28;20468;-77
2022/01/02 12:26:20;;;;;;;25.52;3.03;;;;;;;10.08;95.95;99550.41;5031810;28;20455;-78
2022/01/02 12:29:01;;;;;;;16.83;3.53;;;;;;;9.85;99.48;99523.94;5019828;28;20044;-77
2022/01/02 12:31:44;;;;;;;28.02;5.00;;;;;;;9.45;100.00;99543.38;5014695;28;20041;-78
2022/01/02 12:34:11;;;;;;;19.60;3.08;;;;;;;9.09;100.00;99562.31;5032240;28;20037;-79
2022/01/02 12:36:41;;;;;;;14.82;2.42;;;;;;;8.84;100.00;99548.53;5064863;28;20151;-79
2022/01/02 12:39:09;;;;;;;3.92;0.82;;;;;;;8.66;100.00;99540.13;5016125;28;20057;-79
2022/01/02 12:41:36;;;;;;;9.50;3.03;;;;;;;8.51;100.00;99565.13;5010271;28;20040;-80
2022/01/02 12:44:08;;;;;;;7.13;1.95;;;;;;;8.12;100.00;99541.41;5029846;28;20033;-80
2022/01/02 12:46:47;;;;;;;6.57;1.75;;;;;;;8.16;100.00;99566.81;5014222;28;20136;-81
2022/01/02 12:49:15;;;;;;;0.85;0.68;;;;;;;8.20;100.00;99540.47;5031202;28;20104;-80
2022/01/02 12:51:48;;;;;;;7.07;1.52;;;;;;;9.79;100.00;99573.88;4988702;28;20084;-79